Time;durP1;ratioP1;P1;durP2;ratioP2;P2;SDS_P1;SDS_P2;PMS_P1;PMS_P2;Temp;Humidity;BMP_temperature;BMP_pressure;BME280_temperature;BME280_humidity;BME280_pressure;Samples;Min_cycle;Max_cycle;Signal;HPM_P1;HPM_P2
2022/04/21 00:01:37;;;;;;;12.93;7.25;;;;;;;;;;5049260;28;20049;-72
2022/04/21 00:04:03;;;;;;;13.30;6.68;;;;;;;;;;5050123;28;20067;-72
2022/04/21 00:06:29;;;;;;;11.25;7.40;;;;;;;;;;5068181;28;20064;-72
2022/04/21 00:08:55;;;;;;;13.65;7.10;;;;;;;;;;5068373;28;20052;-73
2022/04/21 00:11:21;;;;;;;13.60;7.28;;;;;;;;;;5067343;28;20041;-73
2022/04/21 00:13:47;;;;;;;11.38;7.00;;;;;;;;;;5066263;28;20491;-72
2022/04/21 00:16:14;;;;;;;12.75;7.70;;;;;;;;;;5062487;28;20288;-73
2022/04/21 00:18:40;;;;;;;14.38;7.30;;;;;;;;;;5067995;28;20083;-73
2022/04/21 00:21:06;;;;;;;12.13;7.53;;;;;;;;;;5051261;28;20051;-73
2022/04/21 00:23:33;;;;;;;11.18;7.28;;;;;;;;;;5069091;28;20041;-73
2022/04/21 00:26:00;;;;;;;11.07;7.20;;;;;;;;;;5059444;28;20578;-73
2022/04/21 00:28:28;;;;;;;15.52;8.13;;;;;;;;;;5070099;28;20052;-73
2022/04/21 00:30:54;;;;;;;11.70;7.70;;;;;;;;;;5046456;28;20033;-73
2022/04/21 00:33:21;;;;;;;14.63;7.72;;;;;;;;;;5069673;28;20048;-73
2022/04/21 00:35:47;;;;;;;10.90;7.55;;;;;;;;;;5069387;28;20041;-72
2022/04/21 00:38:13;;;;;;;12.25;7.93;;;;;;;;;;5071342;28;20041;-73
2022/04/21 00:40:39;;;;;;;14.73;8.25;;;;;;;;;;5069562;28;20044;-73
2022/04/21 00:43:06;;;;;;;10.00;7.20;;;;;;;;;;5069270;28;20037;-74
2022/04/21 00:45:33;;;;;;;10.93;7.95;;;;;;;;;;5067432;28;20141;-73
2022/04/21 00:48:00;;;;;;;12.75;8.20;;;;;;;;;;5065834;28;20064;-73
2022/04/21 00:50:37;;;;;;;12.52;8.15;;;;;;;;;;5066566;28;20048;-73
2022/04/21 00:53:03;;;;;;;15.32;8.55;;;;;;;;;;5068244;28;20048;-73
2022/04/21 00:55:30;;;;;;;14.98;8.55;;;;;;;;;;5061244;28;20099;-74
2022/04/21 00:57:56;;;;;;;14.82;8.25;;;;;;;;;;5067152;28;20084;-73
2022/04/21 01:00:23;;;;;;;13.00;8.43;;;;;;;;;;5067639;28;20068;-73
2022/04/21 01:02:54;;;;;;;14.50;8.63;;;;;;;;;;5043527;28;20045;-72
2022/04/21 01:05:28;;;;;;;13.90;9.00;;;;;;;;;;5041264;28;20040;-73
2022/04/21 01:07:55;;;;;;;12.30;8.80;;;;;;;;;;5067334;28;20049;-73
2022/04/21 01:10:22;;;;;;;13.40;8.77;;;;;;;;;;5063203;28;20068;-73
2022/04/21 01:12:48;;;;;;;12.25;8.05;;;;;;;;;;5033545;28;20042;-73
2022/04/21 01:15:14;;;;;;;14.13;9.60;;;;;;;;;;5066765;28;20045;-72
2022/04/21 01:17:41;;;;;;;16.30;9.93;;;;;;;;;;5067579;28;20037;-73
2022/04/21 01:20:08;;;;;;;17.83;11.10;;;;;;;;;;5066628;28;20114;-72
2022/04/21 01:22:34;;;;;;;18.88;11.73;;;;;;;;;;5060661;28;20052;-73
2022/04/21 01:25:00;;;;;;;16.85;11.55;;;;;;;;;;5067405;28;20037;-72
2022/04/21 01:27:29;;;;;;;19.10;11.25;;;;;;;;;;5070690;28;20126;-73
2022/04/21 01:29:55;;;;;;;16.25;9.38;;;;;;;;;;5049324;28;20130;-72
2022/04/21 01:32:21;;;;;;;14.85;9.82;;;;;;;;;;5067833;28;20047;-72
2022/04/21 01:34:47;;;;;;;14.18;9.82;;;;;;;;;;5066701;28;20045;-73
2022/04/21 01:42:43;;;;;;;15.65;11.40;;;;;;;;;;5065712;28;20045;-72
2022/04/21 01:45:09;;;;;;;18.10;12.18;;;;;;;;;;5047173;28;20159;-73
2022/04/21 01:47:35;;;;;;;18.70;11.90;;;;;;;;;;5070831;28;20056;-72
2022/04/21 01:50:07;;;;;;;21.50;11.77;;;;;;;;;;5067539;28;20033;-73
2022/04/21 01:52:33;;;;;;;17.38;10.95;;;;;;;;;;5051763;28;20049;-73
2022/04/21 01:54:59;;;;;;;16.58;10.65;;;;;;;;;;5066346;28;20076;-72
2022/04/21 01:57:25;;;;;;;16.67;10.55;;;;;;;;;;5051287;28;20499;-72
2022/04/21 01:59:51;;;;;;;17.70;10.43;;;;;;;;;;5049929;28;20128;-74
2022/04/21 02:02:17;;;;;;;17.48;11.20;;;;;;;;;;5068142;28;20052;-72
2022/04/21 02:04:43;;;;;;;16.15;11.10;;;;;;;;;;5067690;28;20045;-73
2022/04/21 02:07:09;;;;;;;15.80;10.23;;;;;;;;;;5051510;28;20127;-73
2022/04/21 02:09:35;;;;;;;15.70;10.73;;;;;;;;;;5066919;28;20072;-72
2022/04/21 02:12:01;;;;;;;16.27;10.20;;;;;;;;;;5062809;28;20033;-73
2022/04/21 02:14:28;;;;;;;16.02;10.27;;;;;;;;;;5051076;28;20033;-72
2022/04/21 02:16:53;;;;;;;15.88;10.13;;;;;;;;;;5052670;28;20041;-72
2022/04/21 02:19:19;;;;;;;16.42;9.75;;;;;;;;;;5070185;28;20047;-72
2022/04/21 02:21:45;;;;;;;14.30;9.90;;;;;;;;;;5070390;28;20039;-72
2022/04/21 02:24:11;;;;;;;16.00;10.82;;;;;;;;;;5051797;28;20036;-72
2022/04/21 02:26:37;;;;;;;14.70;10.50;;;;;;;;;;5071836;28;20071;-73
2022/04/21 02:29:03;;;;;;;14.77;9.82;;;;;;;;;;5050929;28;20076;-73
2022/04/21 02:31:29;;;;;;;17.45;10.18;;;;;;;;;;5051904;28;20539;-73
2022/04/21 02:33:55;;;;;;;14.30;10.38;;;;;;;;;;5071911;28;20045;-72
2022/04/21 02:36:21;;;;;;;12.43;9.65;;;;;;;;;;5070868;28;20068;-73
2022/04/21 02:38:47;;;;;;;16.80;10.07;;;;;;;;;;5070184;28;20037;-72
2022/04/21 02:41:15;;;;;;;13.98;9.70;;;;;;;;;;5053224;28;20045;-73
2022/04/21 02:43:40;;;;;;;15.35;10.50;;;;;;;;;;5069586;28;20037;-73
2022/04/21 02:46:06;;;;;;;17.63;10.40;;;;;;;;;;5066669;28;20106;-72
2022/04/21 02:48:32;;;;;;;14.55;10.40;;;;;;;;;;5070474;28;20049;-73
2022/04/21 02:50:58;;;;;;;16.55;11.10;;;;;;;;;;5048197;28;20045;-73
2022/04/21 02:58:54;;;;;;;18.50;10.57;;;;;;;;;;5071284;28;20072;-72
2022/04/21 03:01:20;;;;;;;17.95;10.57;;;;;;;;;;5070415;28;20056;-72
2022/04/21 03:03:46;;;;;;;15.10;10.48;;;;;;;;;;5067598;28;20398;-72
2022/04/21 03:06:12;;;;;;;16.30;10.30;;;;;;;;;;5072239;28;20044;-73
2022/04/21 03:08:39;;;;;;;14.30;11.20;;;;;;;;;;5068751;28;20049;-73
2022/04/21 03:11:05;;;;;;;14.98;11.45;;;;;;;;;;5068157;28;20037;-73
2022/04/21 03:13:31;;;;;;;15.07;10.55;;;;;;;;;;5068722;28;20045;-73
2022/04/21 03:15:57;;;;;;;15.80;10.07;;;;;;;;;;5069729;28;20144;-73
2022/04/21 03:18:23;;;;;;;16.45;10.60;;;;;;;;;;5047968;28;20049;-73
2022/04/21 03:26:18;;;;;;;15.95;11.02;;;;;;;;;;5057287;28;20483;-73
2022/04/21 03:28:45;;;;;;;17.55;11.43;;;;;;;;;;5063541;28;20033;-73
2022/04/21 03:31:11;;;;;;;16.48;11.73;;;;;;;;;;5049766;28;20079;-74
2022/04/21 03:33:38;;;;;;;15.27;11.80;;;;;;;;;;5068974;28;20045;-73
2022/04/21 03:36:04;;;;;;;18.70;11.68;;;;;;;;;;5068619;28;20048;-73
2022/04/21 03:38:30;;;;;;;16.00;12.40;;;;;;;;;;5064338;28;20101;-73
2022/04/21 03:40:56;;;;;;;17.40;12.60;;;;;;;;;;5047178;28;20048;-73
2022/04/21 03:43:22;;;;;;;15.10;11.75;;;;;;;;;;5068056;28;20037;-73
2022/04/21 03:45:49;;;;;;;16.20;11.95;;;;;;;;;;5065054;28;20517;-73
2022/04/21 03:48:16;;;;;;;16.42;11.93;;;;;;;;;;5051926;28;20155;-73
2022/04/21 03:50:42;;;;;;;17.38;11.85;;;;;;;;;;5067367;28;20075;-73
2022/04/21 03:53:09;;;;;;;16.95;11.38;;;;;;;;;;5068172;28;20074;-73
2022/04/21 03:55:35;;;;;;;17.10;12.43;;;;;;;;;;5064250;28;20037;-73
2022/04/21 03:58:01;;;;;;;16.25;11.68;;;;;;;;;;5071044;28;20427;-74
2022/04/21 04:00:27;;;;;;;18.60;12.18;;;;;;;;;;5067550;28;20045;-73
2022/04/21 04:02:54;;;;;;;16.55;11.68;;;;;;;;;;5067485;28;20053;-73
2022/04/21 04:05:20;;;;;;;18.13;11.98;;;;;;;;;;5067211;28;20045;-73
2022/04/21 04:13:16;;;;;;;16.83;13.10;;;;;;;;;;5051600;28;20507;-74
2022/04/21 04:15:47;;;;;;;20.85;13.23;;;;;;;;;;5066411;28;20045;-73
2022/04/21 04:18:13;;;;;;;19.80;14.27;;;;;;;;;;5069145;28;20049;-74
2022/04/21 04:20:39;;;;;;;18.15;12.27;;;;;;;;;;5065872;28;20071;-73
2022/04/21 04:23:05;;;;;;;16.92;13.15;;;;;;;;;;5066250;28;20037;-73
2022/04/21 04:25:31;;;;;;;15.90;12.07;;;;;;;;;;5066591;28;20043;-72
2022/04/21 04:27:57;;;;;;;16.98;12.60;;;;;;;;;;5068298;28;20049;-72
2022/04/21 04:30:23;;;;;;;18.38;12.52;;;;;;;;;;5068903;28;20065;-73
2022/04/21 04:32:49;;;;;;;16.75;11.57;;;;;;;;;;5073775;28;20045;-72
2022/04/21 04:35:15;;;;;;;19.15;12.38;;;;;;;;;;5071910;28;20104;-73
2022/04/21 04:37:41;;;;;;;16.83;12.13;;;;;;;;;;5070529;28;20076;-74
2022/04/21 04:40:08;;;;;;;18.35;12.25;;;;;;;;;;5070334;28;20113;-72
2022/04/21 04:42:34;;;;;;;17.27;11.60;;;;;;;;;;5071601;28;20104;-72
2022/04/21 04:47:45;;;;;;;17.65;12.77;;;;;;;;;;5069059;28;20517;-73
2022/04/21 04:50:12;;;;;;;16.35;10.85;;;;;;;;;;5051289;28;20073;-73
2022/04/21 04:52:38;;;;;;;16.83;11.95;;;;;;;;;;5053788;28;20041;-72
2022/04/21 04:55:04;;;;;;;15.48;11.63;;;;;;;;;;5068053;28;20133;-72
2022/04/21 04:57:31;;;;;;;16.73;12.40;;;;;;;;;;5050766;28;20101;-72
2022/04/21 04:59:57;;;;;;;16.45;11.73;;;;;;;;;;5070737;28;20041;-73
2022/04/21 05:02:23;;;;;;;17.85;11.77;;;;;;;;;;5068417;28;20049;-73
2022/04/21 05:04:49;;;;;;;14.65;12.25;;;;;;;;;;5069991;28;20045;-73
2022/04/21 05:07:17;;;;;;;17.60;11.90;;;;;;;;;;5070305;28;20102;-73
2022/04/21 05:09:43;;;;;;;17.83;11.95;;;;;;;;;;5055050;28;20048;-72
2022/04/21 05:12:09;;;;;;;15.52;10.90;;;;;;;;;;5070262;28;20041;-73
2022/04/21 05:14:36;;;;;;;17.45;11.85;;;;;;;;;;5074434;28;20059;-73
2022/04/21 05:17:02;;;;;;;16.15;10.80;;;;;;;;;;5071906;28;20029;-73
2022/04/21 05:19:28;;;;;;;17.65;10.93;;;;;;;;;;5070362;28;20048;-73
2022/04/21 05:21:57;;;;;;;16.65;10.23;;;;;;;;;;5071747;28;20029;-74
2022/04/21 05:24:24;;;;;;;16.90;10.80;;;;;;;;;;5070536;28;20049;-73
2022/04/21 05:26:50;;;;;;;14.65;10.73;;;;;;;;;;5069077;28;20503;-73
2022/04/21 05:32:02;;;;;;;21.40;9.60;;;;;;;;;;5050427;28;20087;-73
2022/04/21 05:34:29;;;;;;;14.50;8.95;;;;;;;;;;5047800;28;20124;-73
2022/04/21 05:36:55;;;;;;;13.60;9.43;;;;;;;;;;5063027;28;20105;-73
2022/04/21 05:39:22;;;;;;;13.50;8.32;;;;;;;;;;5065927;28;20047;-73
2022/04/21 05:41:48;;;;;;;13.35;8.50;;;;;;;;;;5065285;28;20033;-72
2022/04/21 05:44:14;;;;;;;10.27;7.97;;;;;;;;;;5048699;28;20037;-73
2022/04/21 05:46:40;;;;;;;10.90;7.72;;;;;;;;;;5067779;28;20069;-73
2022/04/21 05:49:06;;;;;;;10.43;6.88;;;;;;;;;;5066930;28;20049;-73
2022/04/21 05:51:33;;;;;;;11.63;7.60;;;;;;;;;;5062421;28;20043;-74
2022/04/21 05:53:59;;;;;;;10.85;7.63;;;;;;;;;;5064418;28;20049;-74
2022/04/21 05:56:25;;;;;;;12.82;6.95;;;;;;;;;;5057899;28;20550;-74
2022/04/21 05:58:52;;;;;;;12.10;6.90;;;;;;;;;;5061041;28;20128;-73
2022/04/21 06:01:18;;;;;;;9.15;6.10;;;;;;;;;;5060397;28;20475;-73
2022/04/21 06:03:44;;;;;;;9.93;6.55;;;;;;;;;;5062515;28;20051;-74
2022/04/21 06:06:11;;;;;;;9.77;5.68;;;;;;;;;;5062804;28;20057;-73
2022/04/21 06:08:37;;;;;;;10.70;7.22;;;;;;;;;;5060012;28;20104;-72
2022/04/21 06:11:03;;;;;;;10.82;7.20;;;;;;;;;;5063868;28;20446;-73
2022/04/21 06:13:30;;;;;;;12.10;6.35;;;;;;;;;;5060637;28;20037;-74
2022/04/21 06:15:56;;;;;;;16.60;8.68;;;;;;;;;;5063235;28;20044;-73
2022/04/21 06:18:23;;;;;;;13.38;8.00;;;;;;;;;;5060782;28;20040;-72
2022/04/21 06:20:50;;;;;;;15.18;8.30;;;;;;;;;;5059126;28;20045;-73
2022/04/21 06:23:16;;;;;;;16.35;8.85;;;;;;;;;;5059780;28;20053;-73
2022/04/21 06:25:43;;;;;;;8.82;4.95;;;;;;;;;;5059398;28;20609;-73
2022/04/21 06:28:09;;;;;;;8.80;4.90;;;;;;;;;;5060774;28;20041;-73
2022/04/21 06:30:35;;;;;;;10.90;6.22;;;;;;;;;;5060279;28;20064;-73
2022/04/21 06:33:01;;;;;;;12.85;6.50;;;;;;;;;;5042260;28;20693;-73
2022/04/21 06:35:27;;;;;;;12.27;6.38;;;;;;;;;;5060803;28;20560;-73
2022/04/21 06:37:53;;;;;;;13.48;6.63;;;;;;;;;;5038244;28;20124;-73
2022/04/21 06:40:20;;;;;;;9.23;5.18;;;;;;;;;;5041969;28;20071;-73
2022/04/21 06:42:46;;;;;;;8.50;4.70;;;;;;;;;;5037741;28;20049;-73
2022/04/21 06:48:04;;;;;;;6.80;4.22;;;;;;;;;;5057361;28;20460;-74
2022/04/21 06:50:33;;;;;;;8.15;4.57;;;;;;;;;;5040512;28;20056;-74
2022/04/21 06:53:00;;;;;;;9.15;4.72;;;;;;;;;;5054626;28;20048;-73
2022/04/21 06:55:26;;;;;;;9.85;5.10;;;;;;;;;;5059118;28;20045;-73
2022/04/21 06:57:52;;;;;;;6.95;4.10;;;;;;;;;;5058538;28;20056;-74
2022/04/21 07:00:18;;;;;;;6.70;4.32;;;;;;;;;;5059176;28;20041;-74
2022/04/21 07:02:45;;;;;;;7.30;3.92;;;;;;;;;;5052947;28;20457;-75
2022/04/21 07:05:14;;;;;;;7.72;4.05;;;;;;;;;;5054989;28;20729;-75
2022/04/21 07:07:41;;;;;;;7.13;3.90;;;;;;;;;;5047770;28;20045;-74
2022/04/21 07:10:07;;;;;;;8.65;4.60;;;;;;;;;;5047041;28;20060;-74
2022/04/21 07:12:34;;;;;;;7.63;3.97;;;;;;;;;;5021698;28;20045;-74
2022/04/21 07:15:01;;;;;;;6.78;3.22;;;;;;;;;;5036837;28;20113;-74
2022/04/21 07:17:27;;;;;;;8.52;3.47;;;;;;;;;;5033578;28;20045;-73
2022/04/21 07:19:53;;;;;;;6.65;3.22;;;;;;;;;;5056752;28;20518;-75
2022/04/21 07:22:25;;;;;;;7.95;3.58;;;;;;;;;;5057315;28;20049;-74
2022/04/21 07:24:52;;;;;;;7.72;3.50;;;;;;;;;;5039637;28;20045;-73
2022/04/21 07:27:17;;;;;;;7.00;3.30;;;;;;;;;;5057169;28;20053;-73
2022/04/21 07:29:43;;;;;;;9.57;3.35;;;;;;;;;;5057526;28;20415;-74
2022/04/21 07:32:10;;;;;;;7.22;3.17;;;;;;;;;;5057436;28;20045;-73
2022/04/21 07:34:36;;;;;;;7.10;3.00;;;;;;;;;;5057507;28;20053;-73
2022/04/21 07:37:03;;;;;;;10.40;3.15;;;;;;;;;;5053887;28;20063;-73
2022/04/21 07:39:29;;;;;;;7.10;2.97;;;;;;;;;;5058904;28;20041;-73
2022/04/21 07:41:57;;;;;;;6.65;3.30;;;;;;;;;;5057001;28;20041;-73
2022/04/21 07:44:23;;;;;;;5.22;2.47;;;;;;;;;;5048712;28;20518;-74
2022/04/21 07:46:49;;;;;;;5.28;2.65;;;;;;;;;;5044183;28;20045;-74
2022/04/21 07:54:44;;;;;;;6.53;3.03;;;;;;;;;;5055326;28;20053;-73
2022/04/21 07:57:11;;;;;;;5.85;2.58;;;;;;;;;;5052428;28;20044;-74
2022/04/21 07:59:37;;;;;;;5.10;2.70;;;;;;;;;;5053686;28;20430;-73
2022/04/21 08:02:04;;;;;;;5.65;2.75;;;;;;;;;;5054615;28;20175;-73
2022/04/21 08:04:30;;;;;;;5.07;2.65;;;;;;;;;;5040934;28;20048;-74
2022/04/21 08:07:00;;;;;;;6.57;2.50;;;;;;;;;;5061112;28;20048;-73
2022/04/21 08:09:26;;;;;;;6.72;2.42;;;;;;;;;;5060804;28;20053;-73
2022/04/21 08:11:52;;;;;;;7.00;2.70;;;;;;;;;;5061079;28;20045;-73
2022/04/21 08:14:18;;;;;;;6.80;2.88;;;;;;;;;;5060782;28;20041;-73
2022/04/21 08:16:44;;;;;;;7.15;2.50;;;;;;;;;;5061466;28;20041;-72
2022/04/21 08:19:11;;;;;;;8.25;2.50;;;;;;;;;;5041552;28;20037;-73
2022/04/21 08:21:37;;;;;;;9.68;2.70;;;;;;;;;;5043689;28;20471;-73
2022/04/21 08:32:36;;;;;;;6.07;2.90;;;;;;;;;;5060215;28;20057;-73
2022/04/21 08:35:03;;;;;;;6.95;3.22;;;;;;;;;;5060402;28;20107;-73
2022/04/21 08:37:29;;;;;;;7.40;2.80;;;;;;;;;;5059116;28;20041;-73
2022/04/21 08:39:55;;;;;;;7.78;2.75;;;;;;;;;;5060857;28;20048;-72
2022/04/21 08:42:22;;;;;;;9.73;2.90;;;;;;;;;;5058166;28;20108;-73
2022/04/21 08:44:49;;;;;;;7.03;2.90;;;;;;;;;;5058724;28;20515;-73
2022/04/21 08:47:19;;;;;;;7.68;2.85;;;;;;;;;;5055766;28;20517;-72
2022/04/21 08:49:48;;;;;;;6.97;2.83;;;;;;;;;;5055095;28;20127;-73
2022/04/21 08:52:14;;;;;;;7.93;3.00;;;;;;;;;;5042198;28;20072;-73
2022/04/21 08:54:41;;;;;;;7.80;3.10;;;;;;;;;;5058420;28;20052;-73
2022/04/21 08:57:07;;;;;;;8.40;2.83;;;;;;;;;;5054102;28;20040;-73
2022/04/21 08:59:33;;;;;;;5.70;3.00;;;;;;;;;;5054315;28;20457;-73
2022/04/21 09:02:00;;;;;;;7.25;3.08;;;;;;;;;;5057809;28;20499;-72
2022/04/21 09:04:26;;;;;;;7.93;3.22;;;;;;;;;;5056902;28;20094;-72
2022/04/21 09:06:52;;;;;;;7.95;3.17;;;;;;;;;;5039017;28;20049;-73
2022/04/21 09:09:22;;;;;;;7.90;3.10;;;;;;;;;;5052661;28;20057;-73
2022/04/21 09:11:54;;;;;;;5.37;3.00;;;;;;;;;;5054735;28;20107;-72
2022/04/21 09:14:20;;;;;;;6.95;2.85;;;;;;;;;;5055876;28;20302;-72
2022/04/21 09:16:47;;;;;;;6.18;2.97;;;;;;;;;;5053213;28;20051;-73
2022/04/21 09:19:16;;;;;;;6.80;2.90;;;;;;;;;;5055259;28;20095;-73
2022/04/21 09:21:42;;;;;;;8.80;2.80;;;;;;;;;;5056765;28;20060;-72
2022/04/21 09:24:24;;;;;;;10.80;2.90;;;;;;;;;;5057672;28;20052;-73
2022/04/21 09:26:50;;;;;;;7.68;2.95;;;;;;;;;;5039352;28;20045;-73
2022/04/21 09:29:30;;;;;;;9.68;3.13;;;;;;;;;;5057563;28;20049;-73
2022/04/21 09:32:00;;;;;;;8.10;2.90;;;;;;;;;;5056234;28;20052;-73
2022/04/21 09:34:26;;;;;;;7.57;2.70;;;;;;;;;;5057926;28;20060;-73
2022/04/21 09:36:54;;;;;;;7.97;3.10;;;;;;;;;;5057907;28;20052;-73
2022/04/21 09:39:22;;;;;;;8.18;3.00;;;;;;;;;;5039124;28;20040;-74
2022/04/21 09:41:51;;;;;;;6.45;2.60;;;;;;;;;;5038406;28;20048;-72
2022/04/21 09:47:03;;;;;;;6.47;2.70;;;;;;;;;;5058030;28;20068;-73
2022/04/21 09:49:34;;;;;;;7.85;2.60;;;;;;;;;;5039599;28;20040;-72
2022/04/21 09:52:00;;;;;;;11.32;3.08;;;;;;;;;;5039638;28;20045;-74
2022/04/21 09:54:29;;;;;;;5.40;2.65;;;;;;;;;;5058290;28;20452;-74
2022/04/21 09:56:56;;;;;;;5.35;2.47;;;;;;;;;;5058669;28;20049;-73
2022/04/21 09:59:22;;;;;;;5.82;2.53;;;;;;;;;;5056594;28;20112;-73
2022/04/21 10:01:50;;;;;;;7.13;2.88;;;;;;;;;;5056323;28;20135;-74
2022/04/21 10:04:19;;;;;;;5.80;2.70;;;;;;;;;;5033734;28;20045;-74
2022/04/21 10:06:45;;;;;;;7.50;2.92;;;;;;;;;;5056764;28;20136;-74
2022/04/21 10:09:13;;;;;;;6.35;2.80;;;;;;;;;;5036151;28;20396;-73
2022/04/21 10:11:42;;;;;;;7.32;2.50;;;;;;;;;;5054208;28;20045;-74
2022/04/21 10:14:12;;;;;;;6.07;2.72;;;;;;;;;;5056938;28;20053;-74
2022/04/21 10:16:38;;;;;;;7.95;3.00;;;;;;;;;;5057745;28;20045;-71
2022/04/21 10:19:04;;;;;;;7.28;3.80;;;;;;;;;;5055133;28;20052;-73
2022/04/21 10:21:33;;;;;;;7.82;3.10;;;;;;;;;;5056388;28;20068;-74
2022/04/21 10:23:59;;;;;;;8.65;3.65;;;;;;;;;;5056893;28;20043;-72
2022/04/21 10:26:36;;;;;;;7.57;3.15;;;;;;;;;;5057652;28;20470;-73
2022/04/21 10:29:12;;;;;;;6.00;3.13;;;;;;;;;;5057424;28;20115;-73
2022/04/21 10:32:03;;;;;;;6.35;3.10;;;;;;;;;;5040302;28;20052;-73
2022/04/21 10:34:45;;;;;;;6.13;2.90;;;;;;;;;;5036592;28;20044;-73
2022/04/21 10:37:19;;;;;;;5.90;3.25;;;;;;;;;;5058482;28;20044;-73
2022/04/21 10:40:04;;;;;;;6.32;3.10;;;;;;;;;;5057115;28;20546;-73
2022/04/21 10:42:30;;;;;;;5.43;3.00;;;;;;;;;;5058591;28;20059;-73
2022/04/21 10:44:56;;;;;;;8.68;3.50;;;;;;;;;;5056904;28;20060;-73
2022/04/21 10:47:36;;;;;;;7.10;2.90;;;;;;;;;;5057333;28;20049;-73
2022/04/21 10:50:02;;;;;;;7.68;3.50;;;;;;;;;;5055462;28;20538;-73
2022/04/21 10:58:35;;;;;;;7.28;3.10;;;;;;;;;;5056872;28;20048;-73
2022/04/21 11:01:07;;;;;;;8.07;3.22;;;;;;;;;;5041590;28;20100;-73
2022/04/21 11:03:33;;;;;;;7.40;3.83;;;;;;;;;;5055499;28;20044;-73
2022/04/21 11:06:06;;;;;;;6.88;3.15;;;;;;;;;;5058591;28;20048;-72
2022/04/21 11:08:32;;;;;;;6.78;2.90;;;;;;;;;;5026636;28;20567;-74
2022/04/21 11:11:02;;;;;;;6.97;2.92;;;;;;;;;;5044111;28;20033;-73
2022/04/21 11:13:41;;;;;;;5.00;3.00;;;;;;;;;;5056547;28;20548;-74
2022/04/21 11:16:08;;;;;;;7.75;3.40;;;;;;;;;;5059919;28;20052;-74
2022/04/21 11:18:34;;;;;;;5.70;3.15;;;;;;;;;;5057487;28;20088;-73
2022/04/21 11:21:19;;;;;;;7.45;3.45;;;;;;;;;;5037892;28;20395;-72
2022/04/21 11:23:44;;;;;;;8.20;3.08;;;;;;;;;;5054105;28;20052;-73
2022/04/21 11:26:11;;;;;;;7.50;3.50;;;;;;;;;;5058585;28;20505;-73
2022/04/21 11:28:42;;;;;;;5.95;3.17;;;;;;;;;;5038131;28;20044;-73
2022/04/21 11:31:08;;;;;;;7.15;2.88;;;;;;;;;;5050727;28;20080;-73
2022/04/21 11:33:35;;;;;;;5.80;2.45;;;;;;;;;;5021045;28;20045;-73
2022/04/21 11:36:09;;;;;;;7.15;3.55;;;;;;;;;;5057410;28;20449;-73
2022/04/21 11:38:35;;;;;;;7.13;3.13;;;;;;;;;;5057160;28;20073;-72
2022/04/21 11:41:02;;;;;;;7.57;3.60;;;;;;;;;;5056625;28;20068;-73
2022/04/21 11:43:28;;;;;;;7.75;3.28;;;;;;;;;;5039362;28;20044;-73
2022/04/21 11:45:55;;;;;;;5.97;3.55;;;;;;;;;;5058217;28;20060;-74
2022/04/21 11:48:27;;;;;;;6.60;3.88;;;;;;;;;;5057486;28;20057;-73
2022/04/21 11:50:53;;;;;;;5.75;3.40;;;;;;;;;;5057047;28;20052;-74
2022/04/21 11:53:20;;;;;;;7.25;3.67;;;;;;;;;;5057141;28;20128;-74
2022/04/21 11:55:46;;;;;;;7.40;4.00;;;;;;;;;;5053375;28;20052;-73
2022/04/21 11:58:13;;;;;;;5.85;3.50;;;;;;;;;;5039117;28;20490;-73
2022/04/21 12:06:32;;;;;;;6.72;3.90;;;;;;;;;;5037996;28;20467;-73
2022/04/21 12:08:59;;;;;;;7.30;3.55;;;;;;;;;;5057379;28;20063;-74
2022/04/21 12:11:26;;;;;;;7.57;3.47;;;;;;;;;;5057499;28;20558;-74
2022/04/21 12:13:52;;;;;;;5.63;3.70;;;;;;;;;;5035625;28;20410;-72
2022/04/21 12:16:37;;;;;;;7.90;3.47;;;;;;;;;;5050053;28;20044;-73
2022/04/21 12:19:15;;;;;;;7.35;3.67;;;;;;;;;;5045877;28;20041;-74
2022/04/21 12:21:42;;;;;;;6.70;3.60;;;;;;;;;;5051714;28;20053;-73
2022/04/21 12:24:12;;;;;;;7.97;3.70;;;;;;;;;;5052765;28;20075;-73
2022/04/21 12:26:38;;;;;;;6.30;3.50;;;;;;;;;;5055112;28;20044;-73
2022/04/21 12:29:08;;;;;;;9.93;3.20;;;;;;;;;;5054960;28;20044;-73
2022/04/21 12:31:44;;;;;;;6.45;3.20;;;;;;;;;;5059277;28;20185;-73
2022/04/21 12:34:11;;;;;;;6.32;3.40;;;;;;;;;;5038745;28;20050;-73
2022/04/21 12:36:37;;;;;;;6.28;3.25;;;;;;;;;;5057886;28;20048;-74
2022/04/21 12:39:04;;;;;;;7.65;3.90;;;;;;;;;;5054922;28;20499;-73
2022/04/21 12:41:30;;;;;;;7.35;3.47;;;;;;;;;;5057228;28;20124;-73
2022/04/21 12:43:57;;;;;;;7.05;3.17;;;;;;;;;;5056338;28;20083;-73
2022/04/21 12:46:23;;;;;;;6.88;3.40;;;;;;;;;;5053563;28;20063;-74
2022/04/21 12:48:49;;;;;;;10.88;3.83;;;;;;;;;;5055473;28;20108;-73
2022/04/21 12:51:22;;;;;;;6.25;3.72;;;;;;;;;;5012745;28;20530;-73
2022/04/21 12:53:56;;;;;;;8.63;4.35;;;;;;;;;;5041705;28;20398;-73
2022/04/21 12:56:32;;;;;;;10.98;4.57;;;;;;;;;;5041229;28;20048;-73
2022/04/21 12:58:58;;;;;;;16.88;4.03;;;;;;;;;;5046959;28;20045;-73
2022/04/21 13:01:24;;;;;;;8.07;3.85;;;;;;;;;;5058113;28;20107;-73
2022/04/21 13:03:50;;;;;;;7.55;4.07;;;;;;;;;;5056574;28;20474;-74
2022/04/21 13:06:25;;;;;;;8.65;4.05;;;;;;;;;;5038600;28;20048;-73
2022/04/21 13:08:51;;;;;;;6.72;4.13;;;;;;;;;;5060594;28;20522;-73
2022/04/21 13:11:17;;;;;;;8.93;4.15;;;;;;;;;;5057441;28;20101;-72
2022/04/21 13:13:43;;;;;;;6.40;4.10;;;;;;;;;;5060693;28;20041;-73
2022/04/21 13:16:09;;;;;;;7.53;4.50;;;;;;;;;;5059571;28;20076;-73
2022/04/21 13:18:35;;;;;;;12.95;4.25;;;;;;;;;;5060082;28;20048;-73
2022/04/21 13:23:46;;;;;;;9.10;4.60;;;;;;;;;;5041057;28;20053;-73
2022/04/21 13:26:12;;;;;;;8.00;4.00;;;;;;;;;;5061645;28;20045;-74
2022/04/21 13:28:38;;;;;;;9.75;4.75;;;;;;;;;;5041763;28;20099;-73
2022/04/21 13:33:49;;;;;;;8.70;4.88;;;;;;;;;;5055769;28;20061;-72
2022/04/21 13:36:16;;;;;;;10.02;5.35;;;;;;;;;;5057214;28;20155;-72
2022/04/21 13:38:43;;;;;;;11.15;4.47;;;;;;;;;;5061488;28;20129;-73
2022/04/21 13:41:09;;;;;;;7.95;4.32;;;;;;;;;;5059859;28;20511;-73
2022/04/21 13:43:35;;;;;;;16.63;4.20;;;;;;;;;;5055174;28;20041;-74
2022/04/21 13:46:02;;;;;;;8.55;4.45;;;;;;;;;;5057282;28;20060;-72
2022/04/21 13:48:28;;;;;;;7.60;4.00;;;;;;;;;;5046299;28;20056;-73
2022/04/21 13:50:54;;;;;;;7.88;4.07;;;;;;;;;;5058188;28;20418;-73
2022/04/21 13:53:20;;;;;;;9.80;4.22;;;;;;;;;;5057998;28;20037;-73
2022/04/21 13:55:46;;;;;;;18.40;4.72;;;;;;;;;;5075378;28;20114;-73
2022/04/21 13:58:14;;;;;;;9.82;4.82;;;;;;;;;;5048684;28;20099;-73
2022/04/21 14:00:44;;;;;;;7.75;4.03;;;;;;;;;;5040277;28;20045;-73
2022/04/21 14:03:10;;;;;;;11.07;4.70;;;;;;;;;;5058125;28;20124;-73
2022/04/21 14:05:37;;;;;;;6.93;4.25;;;;;;;;;;5054999;28;20043;-73
2022/04/21 14:08:04;;;;;;;6.75;4.05;;;;;;;;;;5060137;28;20096;-73
2022/04/21 14:10:30;;;;;;;8.25;4.30;;;;;;;;;;5041291;28;20550;-74
2022/04/21 14:12:56;;;;;;;10.48;4.45;;;;;;;;;;5059197;28;20052;-72
2022/04/21 14:15:23;;;;;;;8.45;4.50;;;;;;;;;;5053439;28;20045;-73
2022/04/21 14:17:49;;;;;;;10.13;4.63;;;;;;;;;;5060419;28;20466;-72
2022/04/21 14:20:15;;;;;;;15.82;4.40;;;;;;;;;;5058802;28;20104;-72
2022/04/21 14:22:41;;;;;;;8.63;4.45;;;;;;;;;;5057891;28;20167;-72
2022/04/21 14:25:07;;;;;;;6.88;4.03;;;;;;;;;;5057477;28;20060;-73
2022/04/21 14:27:33;;;;;;;8.65;3.95;;;;;;;;;;5059357;28;20044;-73
2022/04/21 14:30:00;;;;;;;6.80;3.88;;;;;;;;;;5057999;28;20044;-73
2022/04/21 14:32:26;;;;;;;7.65;4.32;;;;;;;;;;5058848;28;20053;-73
2022/04/21 14:34:52;;;;;;;9.05;4.60;;;;;;;;;;5056806;28;20041;-73
2022/04/21 14:44:04;;;;;;;8.32;4.70;;;;;;;;;;5057988;28;20430;-73
2022/04/21 14:45:34;;;;;;;10.07;4.50;;;;;;;;;;5039083;28;20053;-74
2022/04/21 14:48:00;;;;;;;19.65;4.82;;;;;;;;;;5021482;28;20479;-73
2022/04/21 14:50:26;;;;;;;9.15;4.35;;;;;;;;;;5058847;28;20040;-74
2022/04/21 14:52:52;;;;;;;12.80;4.43;;;;;;;;;;5059510;28;20051;-73
2022/04/21 14:55:18;;;;;;;9.20;4.57;;;;;;;;;;5057613;28;20055;-73
2022/04/21 14:57:44;;;;;;;7.80;3.90;;;;;;;;;;5052989;28;20894;-73
2022/04/21 15:00:11;;;;;;;7.68;4.35;;;;;;;;;;5059185;28;20071;-73
2022/04/21 15:02:37;;;;;;;9.90;4.60;;;;;;;;;;5043179;28;20044;-73
2022/04/21 15:05:03;;;;;;;9.23;4.38;;;;;;;;;;5039596;28;20048;-72
2022/04/21 15:07:29;;;;;;;10.02;4.38;;;;;;;;;;5047813;28;20045;-73
2022/04/21 15:09:55;;;;;;;8.30;5.20;;;;;;;;;;5058890;28;20051;-73
2022/04/21 15:12:21;;;;;;;9.85;4.72;;;;;;;;;;5053753;28;20044;-73
2022/04/21 15:14:47;;;;;;;8.77;4.45;;;;;;;;;;5040420;28;20053;-73
2022/04/21 15:17:13;;;;;;;8.82;5.20;;;;;;;;;;5056833;28;20041;-73
2022/04/21 15:19:43;;;;;;;9.70;4.45;;;;;;;;;;5049607;28;20044;-74
2022/04/21 15:22:09;;;;;;;7.50;4.60;;;;;;;;;;5048919;28;20084;-73
2022/04/21 15:24:35;;;;;;;9.50;4.65;;;;;;;;;;5057915;28;20048;-72
2022/04/21 15:27:01;;;;;;;14.57;4.57;;;;;;;;;;5058165;28;20457;-73
2022/04/21 15:29:27;;;;;;;11.10;4.40;;;;;;;;;;5060083;28;20071;-73
2022/04/21 15:31:53;;;;;;;8.23;4.72;;;;;;;;;;5059348;28;20041;-73
2022/04/21 15:34:19;;;;;;;8.52;4.25;;;;;;;;;;5057395;28;20749;-73
2022/04/21 15:36:45;;;;;;;8.77;4.82;;;;;;;;;;5056697;28;20110;-74
2022/04/21 15:39:13;;;;;;;8.63;4.10;;;;;;;;;;5056711;28;20041;-73
2022/04/21 15:41:39;;;;;;;8.82;4.50;;;;;;;;;;5056038;28;20041;-73
2022/04/21 15:44:05;;;;;;;8.35;5.00;;;;;;;;;;5050534;28;20041;-73